createdAt,value
2022-11-25T00:01:23.748Z,99.88
2022-11-25T00:03:51.819Z,99.92
2022-11-25T00:06:23.243Z,99.96
2022-11-25T00:08:56.048Z,99.79
2022-11-25T00:11:23.593Z,99.96
2022-11-25T00:13:50.793Z,99.42
2022-11-25T00:16:19.969Z,99.27
2022-11-25T00:18:49.873Z,99.16
2022-11-25T00:21:19.445Z,98.65
2022-11-25T00:23:58.698Z,98.75
2022-11-25T00:26:26.839Z,98.91
2022-11-25T00:28:54.898Z,99.99
2022-11-25T00:31:24.732Z,99.29
2022-11-25T00:33:52.262Z,99.90
2022-11-25T00:36:34.168Z,99.37
2022-11-25T00:39:11.058Z,98.45
2022-11-25T00:41:56.981Z,98.85
2022-11-25T00:44:36.646Z,98.79
2022-11-25T00:47:12.070Z,98.59
2022-11-25T00:49:41.321Z,99.24
2022-11-25T00:52:09.567Z,100.00
2022-11-25T00:54:36.744Z,100.00
2022-11-25T00:57:04.335Z,99.68
2022-11-25T00:59:31.612Z,99.86
2022-11-25T01:01:59.747Z,99.61
2022-11-25T01:04:27.021Z,99.94
2022-11-25T01:06:58.284Z,99.29
2022-11-25T01:09:25.843Z,100.00
2022-11-25T01:11:53.359Z,99.43
2022-11-25T01:14:22.002Z,99.53
2022-11-25T01:16:49.617Z,99.31
2022-11-25T01:19:17.797Z,99.98
2022-11-25T01:21:44.819Z,100.00
2022-11-25T01:24:14.495Z,100.00
2022-11-25T01:26:42.532Z,99.87
2022-11-25T01:29:15.434Z,99.40
2022-11-25T01:31:42.933Z,99.36
2022-11-25T01:34:23.081Z,99.50
2022-11-25T01:36:50.803Z,99.14
2022-11-25T01:39:26.882Z,99.38
2022-11-25T01:41:58.165Z,100.00
2022-11-25T01:44:29.317Z,99.92
2022-11-25T01:46:59.750Z,99.70
2022-11-25T01:50:02.857Z,99.55
2022-11-25T01:52:44.226Z,99.12
2022-11-25T01:55:11.108Z,99.28
2022-11-25T01:57:44.394Z,99.49
2022-11-25T02:00:12.348Z,99.20
2022-11-25T02:02:46.715Z,99.23
2022-11-25T02:05:17.939Z,99.42
2022-11-25T02:07:48.665Z,99.29
2022-11-25T02:10:24.228Z,98.87
2022-11-25T02:12:52.644Z,98.75
2022-11-25T02:15:20.667Z,99.02
2022-11-25T02:17:48.191Z,98.99
2022-11-25T02:20:17.864Z,99.31
2022-11-25T02:23:05.752Z,99.33
2022-11-25T02:25:35.921Z,99.90
2022-11-25T02:28:17.419Z,99.73
2022-11-25T02:30:45.601Z,99.68
2022-11-25T02:33:13.221Z,100.00
2022-11-25T02:35:46.668Z,100.00
2022-11-25T02:38:19.235Z,99.98
2022-11-25T02:40:54.910Z,100.00
2022-11-25T02:43:22.689Z,100.00
2022-11-25T02:46:02.398Z,100.00
2022-11-25T02:49:00.973Z,100.00
2022-11-25T02:51:22.971Z,100.00
2022-11-25T02:53:50.490Z,100.00
2022-11-25T02:56:23.793Z,100.00
2022-11-25T02:58:50.801Z,100.00
2022-11-25T03:01:18.318Z,100.00
2022-11-25T03:03:45.479Z,100.00
2022-11-25T03:06:14.760Z,100.00
2022-11-25T03:08:45.009Z,100.00
2022-11-25T03:11:13.310Z,100.00
2022-11-25T03:13:41.083Z,100.00
2022-11-25T03:16:09.184Z,100.00
2022-11-25T03:18:36.278Z,100.00
2022-11-25T03:21:03.459Z,100.00
2022-11-25T03:23:30.544Z,100.00
2022-11-25T03:25:57.587Z,100.00
2022-11-25T03:28:24.670Z,100.00
2022-11-25T03:30:51.770Z,100.00
2022-11-25T03:33:18.661Z,100.00
2022-11-25T03:35:48.451Z,100.00
2022-11-25T03:38:15.275Z,100.00
2022-11-25T03:40:42.455Z,100.00
2022-11-25T03:43:09.787Z,100.00
2022-11-25T03:45:37.053Z,100.00
2022-11-25T03:48:07.169Z,100.00
2022-11-25T03:50:34.323Z,100.00
2022-11-25T03:53:01.840Z,100.00
2022-11-25T03:55:29.129Z,100.00
2022-11-25T03:57:56.172Z,100.00
2022-11-25T04:00:24.557Z,100.00
2022-11-25T04:02:58.722Z,100.00
2022-11-25T04:05:25.704Z,100.00
2022-11-25T04:07:57.886Z,100.00
2022-11-25T04:10:27.186Z,100.00
2022-11-25T04:12:55.349Z,100.00
2022-11-25T04:15:28.534Z,100.00
2022-11-25T04:17:57.841Z,100.00
2022-11-25T04:20:25.205Z,100.00
2022-11-25T04:23:12.773Z,100.00
2022-11-25T04:25:45.317Z,100.00
2022-11-25T04:28:18.458Z,100.00
2022-11-25T04:30:45.347Z,100.00
2022-11-25T04:33:12.991Z,100.00
2022-11-25T04:35:39.997Z,100.00
2022-11-25T04:38:08.596Z,100.00
2022-11-25T04:40:36.863Z,100.00
2022-11-25T04:43:15.927Z,100.00
2022-11-25T04:46:12.984Z,100.00
2022-11-25T04:48:39.156Z,100.00
2022-11-25T04:51:06.340Z,100.00
2022-11-25T04:53:33.610Z,100.00
2022-11-25T04:56:00.567Z,100.00
2022-11-25T04:58:49.238Z,100.00
2022-11-25T05:01:16.431Z,100.00
2022-11-25T05:03:54.485Z,100.00
2022-11-25T05:06:25.922Z,100.00
2022-11-25T05:08:53.462Z,100.00
2022-11-25T05:11:22.079Z,100.00
2022-11-25T05:13:50.315Z,100.00
2022-11-25T05:16:18.839Z,100.00
2022-11-25T05:18:46.176Z,100.00
2022-11-25T05:21:13.410Z,100.00
2022-11-25T05:23:42.449Z,100.00
2022-11-25T05:26:10.186Z,100.00
2022-11-25T05:28:43.663Z,100.00
2022-11-25T05:31:12.025Z,100.00
2022-11-25T05:33:39.182Z,100.00
2022-11-25T05:36:08.550Z,100.00
2022-11-25T05:38:46.709Z,100.00
2022-11-25T05:41:19.647Z,100.00
2022-11-25T05:43:47.876Z,100.00
2022-11-25T05:46:15.670Z,100.00
2022-11-25T05:48:47.759Z,100.00
2022-11-25T05:51:15.133Z,100.00
2022-11-25T05:53:42.157Z,100.00
2022-11-25T05:56:10.531Z,100.00
2022-11-25T05:59:07.482Z,100.00
2022-11-25T06:01:45.946Z,100.00
2022-11-25T06:04:14.591Z,100.00
2022-11-25T06:06:42.129Z,100.00
2022-11-25T06:09:09.132Z,100.00
2022-11-25T06:11:39.147Z,100.00
2022-11-25T06:14:06.349Z,100.00
2022-11-25T06:16:33.827Z,100.00
2022-11-25T06:19:10.447Z,100.00
2022-11-25T06:21:37.778Z,100.00
2022-11-25T06:24:05.388Z,100.00
2022-11-25T06:26:32.734Z,99.73
2022-11-25T06:29:03.840Z,100.00
2022-11-25T06:31:31.152Z,99.94
2022-11-25T06:34:16.000Z,100.00
2022-11-25T06:36:43.392Z,100.00
2022-11-25T06:39:10.478Z,100.00
2022-11-25T06:41:37.792Z,99.22
2022-11-25T06:44:08.630Z,99.61
2022-11-25T06:46:35.942Z,100.00
2022-11-25T06:49:03.265Z,99.78
2022-11-25T06:51:31.059Z,98.92
2022-11-25T06:54:00.373Z,99.11
2022-11-25T06:56:28.743Z,99.29
2022-11-25T06:58:56.301Z,99.25
2022-11-25T07:01:29.151Z,99.99
2022-11-25T07:04:00.772Z,99.52
2022-11-25T07:06:28.025Z,99.05
2022-11-25T07:08:58.121Z,99.17
2022-11-25T07:11:26.736Z,99.13
2022-11-25T07:14:00.265Z,97.62
2022-11-25T07:16:31.091Z,98.18
2022-11-25T07:19:02.194Z,98.56
2022-11-25T07:21:30.768Z,98.02
2022-11-25T07:24:00.561Z,97.65
2022-11-25T07:26:30.007Z,96.46
2022-11-25T07:29:02.736Z,97.60
2022-11-25T07:31:33.883Z,95.93
2022-11-25T07:34:06.195Z,96.90
2022-11-25T07:36:35.100Z,96.01
2022-11-25T07:39:05.805Z,97.67
2022-11-25T07:41:35.925Z,97.16
2022-11-25T07:44:05.891Z,96.99
2022-11-25T07:46:46.236Z,98.38
2022-11-25T07:49:16.403Z,96.52
2022-11-25T07:51:51.233Z,97.36
2022-11-25T07:54:18.292Z,97.55
2022-11-25T07:56:46.020Z,96.76
2022-11-25T07:59:16.300Z,97.65
2022-11-25T08:01:44.513Z,97.74
2022-11-25T08:04:18.282Z,96.81
2022-11-25T08:06:48.901Z,95.61
2022-11-25T08:09:20.985Z,95.58
2022-11-25T08:11:49.658Z,95.67
2022-11-25T08:14:18.104Z,94.61
2022-11-25T08:16:45.417Z,94.14
2022-11-25T08:19:15.619Z,94.09
2022-11-25T08:21:42.973Z,94.11
2022-11-25T08:24:19.353Z,93.41
2022-11-25T08:26:46.972Z,93.85
2022-11-25T08:29:16.109Z,92.94
2022-11-25T08:31:43.695Z,94.86
2022-11-25T08:34:22.075Z,93.88
2022-11-25T08:36:52.303Z,92.62
2022-11-25T08:39:51.908Z,92.00
2022-11-25T08:42:08.681Z,92.68
2022-11-25T08:44:36.568Z,91.24
2022-11-25T08:47:04.085Z,91.36
2022-11-25T08:49:33.811Z,90.80
2022-11-25T08:52:10.703Z,91.47
2022-11-25T08:54:38.389Z,93.40
2022-11-25T08:57:09.132Z,92.72
2022-11-25T08:59:36.952Z,92.45
2022-11-25T09:02:04.662Z,91.77
2022-11-25T09:04:38.141Z,90.85
2022-11-25T09:10:47.347Z,91.66
2022-11-25T09:13:15.979Z,90.92
2022-11-25T09:15:43.547Z,90.92
2022-11-25T09:18:11.622Z,92.31
2022-11-25T09:20:43.920Z,92.38
2022-11-25T09:26:30.447Z,90.98
2022-11-25T09:28:58.136Z,90.71
2022-11-25T09:31:25.158Z,92.14
2022-11-25T09:33:52.891Z,91.12
2022-11-25T09:36:21.074Z,91.77
2022-11-25T09:38:49.024Z,91.82
2022-11-25T09:42:05.561Z,92.04
2022-11-25T09:45:13.014Z,94.00
2022-11-25T09:47:57.564Z,93.88
2022-11-25T09:50:48.971Z,94.89
2022-11-25T09:53:31.854Z,94.72
2022-11-25T09:56:28.264Z,93.59
2022-11-25T09:59:10.403Z,93.66
2022-11-25T10:02:04.609Z,94.06
2022-11-25T10:04:42.769Z,92.94
2022-11-25T10:07:20.104Z,93.37
2022-11-25T10:09:48.020Z,93.07
2022-11-25T10:12:31.104Z,92.94
2022-11-25T10:15:07.348Z,92.01
2022-11-25T10:17:43.364Z,91.76
2022-11-25T10:20:20.519Z,90.28
2022-11-25T10:22:55.345Z,91.69
2022-11-25T10:25:30.552Z,91.17
2022-11-25T10:28:03.448Z,90.78
2022-11-25T10:30:51.144Z,90.36
2022-11-25T10:33:36.421Z,90.99
2022-11-25T10:36:18.553Z,92.05
2022-11-25T10:38:56.355Z,91.85
2022-11-25T10:41:34.084Z,91.52
2022-11-25T10:48:50.851Z,90.24
2022-11-25T10:51:51.156Z,90.37
2022-11-25T10:54:27.572Z,90.75
2022-11-25T10:57:03.234Z,91.25
2022-11-25T10:59:38.885Z,91.31
2022-11-25T11:02:19.554Z,90.56
2022-11-25T11:04:56.590Z,89.62
2022-11-25T11:07:27.208Z,90.12
2022-11-25T11:09:54.833Z,89.42
2022-11-25T11:12:25.960Z,89.11
2022-11-25T11:14:55.110Z,89.27
2022-11-25T11:17:37.180Z,88.78
2022-11-25T11:20:07.609Z,88.49
2022-11-25T11:22:36.530Z,90.00
2022-11-25T11:25:21.631Z,90.70
2022-11-25T11:27:49.502Z,90.66
2022-11-25T11:30:23.649Z,89.28
2022-11-25T11:33:00.600Z,88.69
2022-11-25T11:35:53.523Z,89.69
2022-11-25T11:38:31.642Z,89.32
2022-11-25T11:41:29.309Z,88.57
2022-11-25T11:43:59.305Z,88.76
2022-11-25T11:47:01.904Z,88.70
2022-11-25T11:49:54.972Z,89.41
2022-11-25T11:52:52.504Z,90.19
2022-11-25T11:55:28.942Z,89.72
2022-11-25T11:58:39.429Z,89.89
2022-11-25T12:01:31.504Z,89.23
2022-11-25T12:04:15.265Z,90.11
2022-11-25T12:06:46.590Z,90.00
2022-11-25T12:09:20.606Z,90.00
2022-11-25T12:11:54.514Z,90.58
2022-11-25T12:14:43.055Z,89.12
2022-11-25T12:17:27.234Z,89.97
2022-11-25T12:20:22.489Z,88.70
2022-11-25T12:23:20.578Z,89.24
2022-11-25T12:25:52.428Z,90.02
2022-11-25T12:28:29.609Z,90.76
2022-11-25T12:31:06.449Z,90.36
2022-11-25T12:33:48.902Z,89.71
2022-11-25T12:36:21.896Z,89.73
2022-11-25T12:39:12.198Z,88.21
2022-11-25T12:42:05.199Z,87.88
2022-11-25T12:44:44.281Z,88.06
2022-11-25T12:47:12.314Z,89.04
2022-11-25T12:49:44.290Z,89.29
2022-11-25T12:52:33.531Z,88.60
2022-11-25T12:55:19.022Z,88.90
2022-11-25T12:58:10.753Z,87.29
2022-11-25T13:01:22.556Z,87.63
2022-11-25T13:04:10.203Z,87.86
2022-11-25T13:07:00.052Z,87.98
2022-11-25T13:09:48.138Z,87.30
2022-11-25T13:12:18.950Z,87.55
2022-11-25T13:14:50.829Z,85.96
2022-11-25T13:17:27.402Z,86.94
2022-11-25T13:20:30.606Z,86.05
2022-11-25T13:23:19.282Z,86.38
2022-11-25T13:25:51.129Z,86.28
2022-11-25T13:28:35.235Z,85.57
2022-11-25T13:31:16.699Z,85.26
2022-11-25T13:33:57.241Z,85.54
2022-11-25T13:36:43.112Z,86.34
2022-11-25T13:39:18.246Z,86.59
2022-11-25T13:42:34.645Z,87.07
2022-11-25T13:45:01.802Z,87.72
2022-11-25T13:47:40.937Z,87.00
2022-11-25T13:50:26.348Z,87.48
2022-11-25T13:53:03.802Z,88.76
2022-11-25T13:55:37.438Z,89.07
2022-11-25T13:58:10.390Z,89.74
2022-11-25T14:00:37.488Z,89.88
2022-11-25T14:03:20.179Z,89.92
2022-11-25T14:05:47.192Z,90.39
2022-11-25T14:08:39.341Z,90.29
2022-11-25T14:11:10.060Z,90.77
2022-11-25T14:14:07.523Z,90.73
2022-11-25T14:17:03.723Z,91.44
2022-11-25T14:19:55.153Z,92.06
2022-11-25T14:22:50.692Z,92.25
2022-11-25T14:25:31.111Z,92.70
2022-11-25T14:28:30.581Z,92.64
2022-11-25T14:31:04.917Z,93.11
2022-11-25T14:33:48.777Z,93.38
2022-11-25T14:36:28.093Z,94.04
2022-11-25T14:39:10.605Z,94.35
2022-11-25T14:41:40.624Z,95.72
2022-11-25T14:44:16.055Z,95.67
2022-11-25T14:46:53.254Z,95.54
2022-11-25T14:49:46.633Z,95.72
2022-11-25T14:52:30.370Z,95.87
2022-11-25T14:54:58.630Z,96.07
2022-11-25T14:57:29.722Z,96.27
2022-11-25T15:00:03.621Z,95.73
2022-11-25T15:02:34.582Z,95.09
2022-11-25T15:05:23.880Z,94.98
2022-11-25T15:08:00.843Z,95.14
2022-11-25T15:10:42.306Z,94.32
2022-11-25T15:13:12.976Z,94.48
2022-11-25T15:15:40.442Z,94.12
2022-11-25T15:18:10.055Z,93.96
2022-11-25T15:20:38.880Z,92.87
2022-11-25T15:23:05.860Z,93.07
2022-11-25T15:25:32.738Z,93.43
2022-11-25T15:27:59.912Z,93.38
2022-11-25T15:30:32.168Z,93.34
2022-11-25T15:33:10.189Z,93.08
2022-11-25T15:35:37.712Z,93.43
2022-11-25T15:38:37.982Z,93.96
2022-11-25T15:41:06.760Z,94.13
2022-11-25T15:43:37.537Z,94.04
2022-11-25T15:46:05.969Z,93.83
2022-11-25T15:48:46.359Z,94.14
2022-11-25T15:51:34.921Z,94.46
2022-11-25T15:54:28.559Z,94.12
2022-11-25T15:57:06.244Z,94.58
2022-11-25T15:59:56.216Z,94.17
2022-11-25T16:02:50.437Z,94.53
2022-11-25T16:05:26.596Z,94.30
2022-11-25T16:07:53.845Z,93.69
2022-11-25T16:10:34.396Z,93.61
2022-11-25T16:13:23.486Z,93.64
2022-11-25T16:16:02.295Z,94.57
2022-11-25T16:18:56.469Z,94.15
2022-11-25T16:21:30.581Z,93.21
2022-11-25T16:24:10.333Z,93.11
2022-11-25T16:26:51.227Z,92.82
2022-11-25T16:29:41.910Z,92.26
2022-11-25T16:32:29.795Z,91.37
2022-11-25T16:35:11.561Z,90.72
2022-11-25T16:37:38.626Z,90.60
2022-11-25T16:40:06.324Z,90.87
2022-11-25T16:42:33.934Z,91.52
2022-11-25T16:45:01.639Z,91.68
2022-11-25T16:47:28.735Z,91.88
2022-11-25T16:49:55.771Z,92.14
2022-11-25T16:52:22.905Z,92.54
2022-11-25T16:54:49.925Z,93.02
2022-11-25T16:57:22.509Z,93.24
2022-11-25T16:59:55.765Z,93.43
2022-11-25T17:02:24.473Z,93.94
2022-11-25T17:04:51.653Z,93.74
2022-11-25T17:07:36.070Z,94.52
2022-11-25T17:10:04.291Z,94.55
2022-11-25T17:12:34.541Z,94.94
2022-11-25T17:15:04.747Z,94.99
2022-11-25T17:17:32.488Z,94.93
2022-11-25T17:19:59.520Z,94.94
2022-11-25T17:22:28.693Z,95.27
2022-11-25T17:24:58.640Z,95.54
2022-11-25T17:27:29.654Z,95.85
2022-11-25T17:29:58.611Z,96.02
2022-11-25T17:32:26.782Z,95.62
2022-11-25T17:34:54.649Z,95.62
2022-11-25T17:37:24.756Z,95.13
2022-11-25T17:39:53.556Z,94.87
2022-11-25T17:42:31.663Z,94.94
2022-11-25T17:44:59.862Z,94.51
2022-11-25T17:47:27.018Z,94.27
2022-11-25T17:49:54.688Z,94.30
2022-11-25T17:52:21.883Z,94.53
2022-11-25T17:54:48.882Z,95.04
2022-11-25T17:57:19.876Z,95.27
2022-11-25T17:59:47.282Z,95.79
2022-11-25T18:02:19.854Z,96.11
2022-11-25T18:04:47.070Z,96.60
2022-11-25T18:07:14.656Z,96.44
2022-11-25T18:10:01.147Z,96.80
2022-11-25T18:12:34.041Z,97.67
2022-11-25T18:15:08.679Z,97.99
2022-11-25T18:17:37.886Z,98.44
2022-11-25T18:20:25.304Z,99.26
2022-11-25T18:22:53.277Z,99.23
2022-11-25T18:25:24.348Z,100.00
2022-11-25T18:27:56.652Z,99.94
2022-11-25T18:30:28.295Z,100.00
2022-11-25T18:32:57.515Z,100.00
2022-11-25T18:35:36.353Z,100.00
2022-11-25T18:38:05.091Z,100.00
2022-11-25T18:43:49.015Z,100.00
2022-11-25T18:46:16.229Z,100.00
2022-11-25T18:48:43.455Z,100.00
2022-11-25T18:51:13.217Z,100.00
2022-11-25T18:53:40.841Z,100.00
2022-11-25T18:56:17.480Z,100.00
2022-11-25T18:58:50.830Z,100.00
2022-11-25T19:01:22.239Z,100.00
2022-11-25T19:03:51.237Z,100.00
2022-11-25T19:06:18.250Z,100.00
2022-11-25T19:08:46.354Z,100.00
2022-11-25T19:11:21.963Z,100.00
2022-11-25T19:13:53.455Z,100.00
2022-11-25T19:16:22.821Z,100.00
2022-11-25T19:18:53.179Z,100.00
2022-11-25T19:21:21.271Z,100.00
2022-11-25T19:23:58.890Z,100.00
2022-11-25T19:26:42.533Z,100.00
2022-11-25T19:29:18.619Z,100.00
2022-11-25T19:31:49.781Z,100.00
2022-11-25T19:34:31.996Z,100.00
2022-11-25T19:37:13.596Z,100.00
2022-11-25T19:39:57.471Z,100.00
2022-11-25T19:42:34.975Z,100.00
2022-11-25T19:45:13.199Z,100.00
2022-11-25T19:47:40.924Z,100.00
2022-11-25T19:50:08.470Z,100.00
2022-11-25T19:52:43.823Z,100.00
2022-11-25T19:55:34.194Z,100.00
2022-11-25T19:58:07.073Z,99.88
2022-11-25T20:00:37.087Z,100.00
2022-11-25T20:03:05.069Z,99.80
2022-11-25T20:05:38.128Z,99.77
2022-11-25T20:08:05.734Z,99.90
2022-11-25T20:10:33.666Z,100.00
2022-11-25T20:13:02.057Z,100.00
2022-11-25T20:15:29.015Z,100.00
2022-11-25T20:18:00.179Z,100.00
2022-11-25T20:20:32.877Z,100.00
2022-11-25T20:23:04.148Z,100.00
2022-11-25T20:25:31.377Z,100.00
2022-11-25T20:27:58.943Z,100.00
2022-11-25T20:30:29.022Z,100.00
2022-11-25T20:32:56.137Z,100.00
2022-11-25T20:35:25.995Z,100.00
2022-11-25T20:37:58.345Z,100.00
2022-11-25T20:40:33.472Z,100.00
2022-11-25T20:43:00.591Z,100.00
2022-11-25T20:45:27.696Z,100.00
2022-11-25T20:47:54.702Z,100.00
2022-11-25T20:50:22.163Z,100.00
2022-11-25T20:52:50.653Z,100.00
2022-11-25T20:55:24.468Z,100.00
2022-11-25T20:57:52.739Z,100.00
2022-11-25T21:00:23.769Z,100.00
2022-11-25T21:02:51.585Z,100.00
2022-11-25T21:05:19.489Z,100.00
2022-11-25T21:07:49.210Z,100.00
2022-11-25T21:10:41.903Z,100.00
2022-11-25T21:13:38.019Z,100.00
2022-11-25T21:16:05.327Z,100.00
2022-11-25T21:18:44.695Z,100.00
2022-11-25T21:21:19.930Z,100.00
2022-11-25T21:23:50.096Z,100.00
2022-11-25T21:26:21.940Z,100.00
2022-11-25T21:28:54.454Z,100.00
2022-11-25T21:31:28.112Z,100.00
2022-11-25T21:33:59.318Z,100.00
2022-11-25T21:36:31.991Z,100.00
2022-11-25T21:39:08.809Z,100.00
2022-11-25T21:41:36.777Z,100.00
2022-11-25T21:44:06.948Z,100.00
2022-11-25T21:46:39.700Z,100.00
2022-11-25T21:49:14.159Z,100.00
2022-11-25T21:51:41.725Z,100.00
2022-11-25T21:54:18.420Z,100.00
2022-11-25T21:56:48.940Z,100.00
2022-11-25T21:59:20.157Z,100.00
2022-11-25T22:01:48.477Z,100.00
2022-11-25T22:04:19.676Z,100.00
2022-11-25T22:06:47.966Z,100.00
2022-11-25T22:09:16.608Z,100.00
2022-11-25T22:11:48.394Z,100.00
2022-11-25T22:14:27.803Z,100.00
2022-11-25T22:16:57.159Z,100.00
2022-11-25T22:19:28.932Z,100.00
2022-11-25T22:21:56.564Z,100.00
2022-11-25T22:24:24.201Z,100.00
2022-11-25T22:26:58.057Z,100.00
2022-11-25T22:29:34.945Z,100.00
2022-11-25T22:32:08.201Z,100.00
2022-11-25T22:34:39.666Z,100.00
2022-11-25T22:37:27.698Z,100.00
2022-11-25T22:39:56.052Z,100.00
2022-11-25T22:42:30.890Z,100.00
2022-11-25T22:45:00.131Z,100.00
2022-11-25T22:47:41.274Z,100.00
2022-11-25T22:50:18.471Z,100.00
2022-11-25T22:52:45.935Z,100.00
2022-11-25T22:55:20.817Z,100.00
2022-11-25T22:57:49.200Z,100.00
2022-11-25T23:00:24.457Z,100.00
2022-11-25T23:02:54.529Z,100.00
2022-11-25T23:05:32.477Z,100.00
2022-11-25T23:08:01.731Z,100.00
2022-11-25T23:10:32.606Z,100.00
2022-11-25T23:12:59.723Z,100.00
2022-11-25T23:15:27.258Z,100.00
2022-11-25T23:17:59.893Z,100.00
2022-11-25T23:20:32.607Z,100.00
2022-11-25T23:23:18.144Z,100.00
2022-11-25T23:25:45.826Z,100.00
2022-11-25T23:28:13.678Z,100.00
2022-11-25T23:30:52.704Z,100.00
2022-11-25T23:33:40.753Z,100.00
2022-11-25T23:36:09.973Z,100.00
2022-11-25T23:38:44.920Z,100.00
2022-11-25T23:41:33.129Z,100.00
2022-11-25T23:44:15.826Z,100.00
2022-11-25T23:46:44.535Z,100.00
2022-11-25T23:49:23.251Z,100.00
2022-11-25T23:51:51.623Z,100.00
2022-11-25T23:54:21.896Z,100.00
2022-11-25T23:56:51.674Z,100.00
2022-11-25T23:59:18.586Z,100.00
